createdAt,value
2017-10-05T00:01:29.389Z,100712
2017-10-05T00:03:58.072Z,100701
2017-10-05T00:06:26.369Z,100710
2017-10-05T00:08:55.474Z,100718
2017-10-05T00:11:23.749Z,100721
2017-10-05T00:13:52.058Z,100709
2017-10-05T00:16:20.349Z,100706
2017-10-05T00:18:48.621Z,100702
2017-10-05T00:21:16.887Z,100702
2017-10-05T00:23:45.164Z,100707
2017-10-05T00:26:13.404Z,100696
2017-10-05T00:28:41.725Z,100684
2017-10-05T00:31:09.999Z,100695
2017-10-05T00:33:38.273Z,100687
2017-10-05T00:36:06.535Z,100689
2017-10-05T00:38:35.019Z,100664
2017-10-05T00:41:03.341Z,100661
2017-10-05T00:43:31.637Z,100655
2017-10-05T00:45:59.889Z,100661
2017-10-05T00:48:28.144Z,100670
2017-10-05T00:50:56.430Z,100665
2017-10-05T00:53:24.742Z,100659
2017-10-05T00:55:53.039Z,100636
2017-10-05T00:58:21.289Z,100632
2017-10-05T01:00:49.539Z,100629
2017-10-05T01:03:17.848Z,100627
2017-10-05T01:05:46.097Z,100630
2017-10-05T01:08:15.118Z,100629
2017-10-05T01:10:43.767Z,100626
2017-10-05T01:13:12.802Z,100621
2017-10-05T01:15:41.096Z,100614
2017-10-05T01:20:43.922Z,100605
2017-10-05T01:23:12.192Z,100599
2017-10-05T01:25:40.495Z,100599
2017-10-05T01:28:09.544Z,100599
2017-10-05T01:30:37.763Z,100593
2017-10-05T01:33:06.759Z,100576
2017-10-05T01:35:35.732Z,100572
2017-10-05T01:38:03.926Z,100570
2017-10-05T01:40:32.899Z,100559
2017-10-05T01:43:01.091Z,100553
2017-10-05T01:45:30.058Z,100534
2017-10-05T01:47:58.343Z,100557
2017-10-05T01:50:26.518Z,100546
2017-10-05T01:52:54.703Z,100552
2017-10-05T01:55:23.695Z,100536
2017-10-05T01:57:52.655Z,100541
2017-10-05T02:00:20.884Z,100529
2017-10-05T02:02:49.082Z,100519
2017-10-05T02:05:17.291Z,100519
2017-10-05T02:07:46.632Z,100497
2017-10-05T02:10:14.830Z,100494
2017-10-05T02:12:43.046Z,100499
2017-10-05T02:15:12.039Z,100486
2017-10-05T02:17:41.023Z,100496
2017-10-05T02:20:09.587Z,100478
2017-10-05T02:22:37.859Z,100475
2017-10-05T02:25:06.054Z,100485
2017-10-05T02:27:35.066Z,100486
2017-10-05T02:30:04.039Z,100475
2017-10-05T02:32:33.043Z,100475
2017-10-05T02:35:02.004Z,100476
2017-10-05T02:37:30.276Z,100466
2017-10-05T02:39:58.476Z,100467
2017-10-05T02:42:26.676Z,100466
2017-10-05T02:44:54.998Z,100455
2017-10-05T02:47:23.253Z,100440
2017-10-05T02:49:51.485Z,100425
2017-10-05T02:52:20.535Z,100434
2017-10-05T02:54:48.745Z,100425
2017-10-05T02:57:17.715Z,100423
2017-10-05T02:59:45.914Z,100419
2017-10-05T03:02:14.956Z,100408
2017-10-05T03:04:43.151Z,100413
2017-10-05T03:07:11.364Z,100415
2017-10-05T03:09:40.344Z,100403
2017-10-05T03:12:08.540Z,100399
2017-10-05T03:14:36.741Z,100389
2017-10-05T03:17:05.692Z,100380
2017-10-05T03:19:33.900Z,100369
2017-10-05T03:22:02.084Z,100372
2017-10-05T03:24:30.275Z,100367
2017-10-05T03:26:58.490Z,100365
2017-10-05T03:29:27.443Z,100365
2017-10-05T03:31:55.692Z,100346
2017-10-05T03:34:23.897Z,100342
2017-10-05T03:36:52.107Z,100318
2017-10-05T03:39:20.391Z,100308
2017-10-05T03:41:48.598Z,100311
2017-10-05T03:44:16.782Z,100306
2017-10-05T03:46:44.993Z,100296
2017-10-05T03:49:13.940Z,100292
2017-10-05T03:51:42.149Z,100282
2017-10-05T03:54:11.132Z,100272
2017-10-05T03:56:39.315Z,100273
2017-10-05T03:59:08.271Z,100272
2017-10-05T04:01:36.478Z,100284
2017-10-05T04:04:05.230Z,100279
2017-10-05T04:06:33.467Z,100267
2017-10-05T04:09:01.649Z,100271
2017-10-05T04:11:29.831Z,100264
2017-10-05T04:13:58.050Z,100255
2017-10-05T04:16:26.269Z,100246
2017-10-05T04:18:54.473Z,100245
2017-10-05T04:21:23.035Z,100244
2017-10-05T04:23:51.203Z,100234
2017-10-05T04:26:19.393Z,100230
2017-10-05T04:28:47.572Z,100231
2017-10-05T04:31:15.828Z,100216
2017-10-05T04:33:44.386Z,100219
2017-10-05T04:36:12.580Z,100203
2017-10-05T04:38:40.798Z,100192
2017-10-05T04:41:09.016Z,100180
2017-10-05T04:43:37.291Z,100180
2017-10-05T04:46:05.483Z,100170
2017-10-05T04:48:33.774Z,100162
2017-10-05T04:51:01.983Z,100160
2017-10-05T04:53:30.203Z,100153
2017-10-05T04:55:58.395Z,100141
2017-10-05T04:58:26.632Z,100129
2017-10-05T05:00:55.852Z,100127
2017-10-05T05:03:24.113Z,100118
2017-10-05T05:05:52.371Z,100108
2017-10-05T05:08:20.561Z,100115
2017-10-05T05:10:48.748Z,100099
2017-10-05T05:13:16.942Z,100095
2017-10-05T05:15:45.144Z,100091
2017-10-05T05:18:13.330Z,100070
2017-10-05T05:20:41.540Z,100070
2017-10-05T05:23:09.778Z,100060
2017-10-05T05:25:38.764Z,100070
2017-10-05T05:28:07.742Z,100056
2017-10-05T05:30:36.022Z,100050
2017-10-05T05:33:05.025Z,100048
2017-10-05T05:35:34.102Z,100039
2017-10-05T05:38:03.169Z,100032
2017-10-05T05:40:31.471Z,100031
2017-10-05T05:43:00.466Z,100031
2017-10-05T05:45:29.444Z,100027
2017-10-05T05:47:57.633Z,100014
2017-10-05T05:50:25.948Z,100002
2017-10-05T05:52:54.147Z,99978
2017-10-05T05:55:22.371Z,99972
2017-10-05T05:57:51.511Z,99968
2017-10-05T06:00:20.838Z,99958
2017-10-05T06:02:49.834Z,99960
2017-10-05T06:05:18.171Z,99950
2017-10-05T06:07:46.428Z,99942
2017-10-05T06:10:17.463Z,99932
2017-10-05T06:12:45.728Z,99920
2017-10-05T06:15:15.469Z,99920
2017-10-05T06:17:44.774Z,99902
2017-10-05T06:20:12.967Z,99888
2017-10-05T06:22:41.166Z,99876
2017-10-05T06:25:09.396Z,99859
2017-10-05T06:27:37.634Z,99847
2017-10-05T06:30:07.194Z,99838
2017-10-05T06:32:35.428Z,99839
2017-10-05T06:35:03.643Z,99834
2017-10-05T06:37:31.864Z,99833
2017-10-05T06:40:00.077Z,99823
2017-10-05T06:42:28.298Z,99804
2017-10-05T06:44:57.306Z,99795
2017-10-05T06:47:25.579Z,99793
2017-10-05T06:49:53.791Z,99788
2017-10-05T06:52:22.382Z,99793
2017-10-05T06:54:50.568Z,99781
2017-10-05T06:57:18.772Z,99766
2017-10-05T06:59:47.751Z,99751
2017-10-05T07:02:15.951Z,99742
2017-10-05T07:04:44.167Z,99735
2017-10-05T07:07:12.410Z,99722
2017-10-05T07:09:40.929Z,99721
2017-10-05T07:12:09.110Z,99711
2017-10-05T07:14:37.279Z,99709
2017-10-05T07:17:05.484Z,99699
2017-10-05T07:19:34.443Z,99683
2017-10-05T07:22:03.035Z,99674
2017-10-05T07:24:31.254Z,99665
2017-10-05T07:26:59.447Z,99644
2017-10-05T07:29:27.659Z,99641
2017-10-05T07:31:55.900Z,99624
2017-10-05T07:34:24.132Z,99612
2017-10-05T07:36:53.127Z,99596
2017-10-05T07:39:22.097Z,99591
2017-10-05T07:41:50.315Z,99585
2017-10-05T07:44:18.545Z,99572
2017-10-05T07:46:47.591Z,99555
2017-10-05T07:49:15.840Z,99545
2017-10-05T07:51:44.854Z,99535
2017-10-05T07:54:13.103Z,99530
2017-10-05T07:56:41.334Z,99516
2017-10-05T07:59:09.934Z,99506
2017-10-05T08:01:38.152Z,99486
2017-10-05T08:04:06.367Z,99477
2017-10-05T08:06:34.613Z,99469
2017-10-05T08:09:03.067Z,99455
2017-10-05T08:11:31.479Z,99446
2017-10-05T08:13:59.703Z,99446
2017-10-05T08:16:28.663Z,99422
2017-10-05T08:18:56.891Z,99414
2017-10-05T08:21:25.164Z,99402
2017-10-05T08:23:53.387Z,99391
2017-10-05T08:26:21.611Z,99363
2017-10-05T08:28:49.920Z,99361
2017-10-05T08:31:18.215Z,99355
2017-10-05T08:33:46.432Z,99339
2017-10-05T08:36:15.591Z,99335
2017-10-05T08:38:43.820Z,99325
2017-10-05T08:41:12.654Z,99317
2017-10-05T08:43:40.916Z,99305
2017-10-05T08:46:09.191Z,99282
2017-10-05T08:48:37.486Z,99272
2017-10-05T08:51:05.863Z,99264
2017-10-05T08:53:34.142Z,99245
2017-10-05T08:56:02.327Z,99234
2017-10-05T08:58:31.392Z,99218
2017-10-05T09:00:59.686Z,99206
2017-10-05T09:03:27.919Z,99200
2017-10-05T09:05:56.727Z,99195
2017-10-05T09:08:25.837Z,99186
2017-10-05T09:10:54.122Z,99179
2017-10-05T09:13:22.363Z,99171
2017-10-05T09:15:50.647Z,99156
2017-10-05T09:18:18.883Z,99154
2017-10-05T09:20:48.040Z,99142
2017-10-05T09:23:17.039Z,99135
2017-10-05T09:25:45.240Z,99122
2017-10-05T09:28:13.427Z,99111
2017-10-05T09:30:41.655Z,99100
2017-10-05T09:33:09.919Z,99112
2017-10-05T09:35:38.144Z,99091
2017-10-05T09:38:06.379Z,99078
2017-10-05T09:40:35.638Z,99060
2017-10-05T09:43:03.913Z,99057
2017-10-05T09:45:32.804Z,99050
2017-10-05T09:48:01.059Z,99036
2017-10-05T09:50:29.288Z,99011
2017-10-05T09:52:58.279Z,99011
2017-10-05T09:58:00.853Z,99000
2017-10-05T10:00:30.181Z,98982
2017-10-05T10:02:58.452Z,98977
2017-10-05T10:05:27.466Z,98959
2017-10-05T10:07:56.439Z,98953
2017-10-05T10:10:25.405Z,98954
2017-10-05T10:12:53.677Z,98944
2017-10-05T10:15:21.882Z,98939
2017-10-05T10:17:51.668Z,98924
2017-10-05T10:20:19.889Z,98918
2017-10-05T10:22:49.240Z,98928
2017-10-05T10:25:18.770Z,98912
2017-10-05T10:27:47.020Z,98913
2017-10-05T10:30:15.270Z,98901
2017-10-05T10:32:43.521Z,98896
2017-10-05T10:35:12.953Z,98879
2017-10-05T10:37:41.183Z,98867
2017-10-05T10:40:10.528Z,98854
2017-10-05T10:42:38.750Z,98848
2017-10-05T10:45:07.699Z,98823
2017-10-05T10:47:37.440Z,98820
2017-10-05T10:50:05.672Z,98808
2017-10-05T10:52:34.381Z,98802
2017-10-05T10:55:02.717Z,98778
2017-10-05T10:57:31.020Z,98759
2017-10-05T10:59:59.224Z,98780
2017-10-05T11:02:27.531Z,98800
2017-10-05T11:04:55.851Z,98788
2017-10-05T11:07:24.248Z,98769
2017-10-05T11:09:53.274Z,98748
2017-10-05T11:12:21.612Z,98751
2017-10-05T11:14:49.834Z,98743
2017-10-05T11:17:18.078Z,98744
2017-10-05T11:19:47.088Z,98741
2017-10-05T11:22:15.309Z,98748
2017-10-05T11:24:43.560Z,98761
2017-10-05T11:27:11.932Z,98758
2017-10-05T11:29:40.197Z,98761
2017-10-05T11:32:08.455Z,98802
2017-10-05T11:34:36.764Z,98873
2017-10-05T11:37:05.371Z,98902
2017-10-05T11:39:33.641Z,98956
2017-10-05T11:42:02.000Z,98974
2017-10-05T11:44:30.188Z,99090
2017-10-05T11:46:59.361Z,99131
2017-10-05T11:49:27.542Z,99137
2017-10-05T11:51:55.869Z,99215
2017-10-05T11:54:24.163Z,99263
2017-10-05T11:56:53.135Z,99291
2017-10-05T11:59:21.382Z,99322
2017-10-05T12:01:49.568Z,99383
2017-10-05T12:04:17.811Z,99423
2017-10-05T12:06:46.891Z,99431
2017-10-05T12:09:15.115Z,99478
2017-10-05T12:11:43.298Z,99503
2017-10-05T12:14:11.610Z,99538
2017-10-05T12:16:39.807Z,99594
2017-10-05T12:19:08.080Z,99599
2017-10-05T12:21:36.369Z,99618
2017-10-05T12:24:04.570Z,99643
2017-10-05T12:26:32.830Z,99639
2017-10-05T12:29:01.063Z,99691
2017-10-05T12:31:29.328Z,99728
2017-10-05T12:33:59.993Z,99744
2017-10-05T12:36:28.335Z,99794
2017-10-05T12:38:56.567Z,99765
2017-10-05T12:41:24.784Z,99784
2017-10-05T12:43:53.017Z,99804
2017-10-05T12:46:21.191Z,99807
2017-10-05T12:48:50.700Z,99807
2017-10-05T12:51:18.988Z,99824
2017-10-05T12:53:47.202Z,99846
2017-10-05T12:56:15.830Z,99868
2017-10-05T12:58:44.152Z,99896
2017-10-05T13:01:12.516Z,99887
2017-10-05T13:03:40.752Z,99909
2017-10-05T13:06:09.000Z,99920
2017-10-05T13:08:43.917Z,99938
2017-10-05T13:11:12.322Z,99951
2017-10-05T13:13:40.691Z,99967
2017-10-05T13:16:09.117Z,99972
2017-10-05T13:18:37.488Z,99985
2017-10-05T13:21:05.713Z,99991
2017-10-05T13:23:33.944Z,100003
2017-10-05T13:26:02.240Z,99994
2017-10-05T13:28:30.478Z,100003
2017-10-05T13:30:58.794Z,100008
2017-10-05T13:33:27.079Z,100018
2017-10-05T13:35:55.475Z,100026
2017-10-05T13:38:23.735Z,100039
2017-10-05T13:40:52.164Z,100040
2017-10-05T13:43:20.507Z,100054
2017-10-05T13:45:49.642Z,100066
2017-10-05T14:01:55.208Z,100115
2017-10-05T14:04:23.577Z,100121
2017-10-05T14:06:51.933Z,100109
2017-10-05T14:09:20.201Z,100126
2017-10-05T14:11:48.573Z,100136
2017-10-05T14:14:17.337Z,100129
2017-10-05T14:16:45.698Z,100122
2017-10-05T14:19:13.990Z,100133
2017-10-05T14:21:42.984Z,100128
2017-10-05T14:24:11.272Z,100140
2017-10-05T14:26:39.880Z,100130
2017-10-05T14:29:08.896Z,100126
2017-10-05T14:31:37.509Z,100140
2017-10-05T14:34:06.650Z,100144
2017-10-05T14:36:34.981Z,100147
2017-10-05T14:39:03.307Z,100159
2017-10-05T14:41:32.308Z,100153
2017-10-05T14:44:01.384Z,100165
2017-10-05T14:46:29.727Z,100165
2017-10-05T14:48:59.375Z,100164
2017-10-05T14:51:29.561Z,100178
2017-10-05T14:53:57.847Z,100199
2017-10-05T14:56:26.448Z,100195
2017-10-05T14:58:55.732Z,100197
2017-10-05T15:01:26.435Z,100211
2017-10-05T15:03:54.739Z,100219
2017-10-05T15:06:23.065Z,100217
2017-10-05T15:08:51.373Z,100226
2017-10-05T15:11:19.816Z,100227
2017-10-05T15:13:48.091Z,100237
2017-10-05T15:16:16.448Z,100240
2017-10-05T15:18:45.519Z,100246
2017-10-05T15:21:14.386Z,100247
2017-10-05T15:23:43.389Z,100250
2017-10-05T15:26:13.248Z,100258
2017-10-05T15:28:42.616Z,100261
2017-10-05T15:31:10.849Z,100263
2017-10-05T15:33:39.102Z,100266
2017-10-05T15:36:08.695Z,100288
2017-10-05T15:38:38.046Z,100282
2017-10-05T15:41:06.243Z,100297
2017-10-05T15:43:34.616Z,100291
2017-10-05T15:46:02.803Z,100296
2017-10-05T15:48:31.008Z,100303
2017-10-05T15:51:00.461Z,100296
2017-10-05T15:53:28.742Z,100296
2017-10-05T15:55:57.851Z,100303
2017-10-05T15:58:26.182Z,100305
2017-10-05T16:00:54.447Z,100300
2017-10-05T16:03:23.453Z,100306
2017-10-05T16:05:52.444Z,100299
2017-10-05T16:08:20.740Z,100306
2017-10-05T16:10:48.962Z,100304
2017-10-05T16:13:18.004Z,100310
2017-10-05T16:15:46.285Z,100323
2017-10-05T16:18:14.512Z,100333
2017-10-05T16:20:42.743Z,100336
2017-10-05T16:23:11.030Z,100341
2017-10-05T16:25:39.333Z,100345
2017-10-05T16:28:07.530Z,100344
2017-10-05T16:30:37.223Z,100347
2017-10-05T16:33:05.489Z,100356
2017-10-05T16:35:33.832Z,100349
2017-10-05T16:38:02.043Z,100350
2017-10-05T16:40:30.341Z,100358
2017-10-05T16:43:00.489Z,100366
2017-10-05T16:45:28.919Z,100370
2017-10-05T16:47:57.281Z,100374
2017-10-05T16:50:25.555Z,100384
2017-10-05T16:52:53.921Z,100384
2017-10-05T16:55:23.051Z,100390
2017-10-05T16:57:52.967Z,100393
2017-10-05T17:00:23.007Z,100397
2017-10-05T17:02:52.022Z,100402
2017-10-05T17:05:20.291Z,100403
2017-10-05T17:07:48.734Z,100401
2017-10-05T17:10:18.561Z,100411
2017-10-05T17:12:46.799Z,100427
2017-10-05T17:15:14.994Z,100424
2017-10-05T17:17:44.672Z,100438
2017-10-05T17:20:13.151Z,100437
2017-10-05T17:22:41.411Z,100433
2017-10-05T17:25:09.686Z,100437
2017-10-05T17:27:37.998Z,100448
2017-10-05T17:30:10.356Z,100443
2017-10-05T17:32:38.559Z,100450
2017-10-05T17:35:07.931Z,100455
2017-10-05T17:37:36.140Z,100457
2017-10-05T17:40:06.036Z,100459
2017-10-05T17:42:35.365Z,100459
2017-10-05T17:45:03.600Z,100460
2017-10-05T17:47:31.820Z,100461
2017-10-05T17:50:00.818Z,100454
2017-10-05T17:52:29.393Z,100470
2017-10-05T17:54:57.646Z,100474
2017-10-05T17:57:26.884Z,100469
2017-10-05T17:59:56.801Z,100469
2017-10-05T18:02:26.168Z,100465
2017-10-05T18:04:55.435Z,100462
2017-10-05T18:07:23.804Z,100469
2017-10-05T18:09:53.330Z,100466
2017-10-05T18:12:22.379Z,100477
2017-10-05T18:14:50.655Z,100476
2017-10-05T18:17:19.046Z,100489
2017-10-05T18:19:47.304Z,100501
2017-10-05T18:22:15.562Z,100506
2017-10-05T18:24:43.799Z,100500
2017-10-05T18:27:13.600Z,100500
2017-10-05T18:29:42.665Z,100499
2017-10-05T18:32:11.664Z,100504
2017-10-05T18:34:40.625Z,100491
2017-10-05T18:37:08.851Z,100488
2017-10-05T18:39:37.892Z,100484
2017-10-05T18:42:06.163Z,100495
2017-10-05T18:44:34.392Z,100489
2017-10-05T18:47:02.655Z,100505
2017-10-05T18:49:31.089Z,100507
2017-10-05T18:51:59.307Z,100505
2017-10-05T18:54:27.675Z,100503
2017-10-05T18:56:56.992Z,100512
2017-10-05T18:59:25.432Z,100516
2017-10-05T19:01:53.707Z,100530
2017-10-05T19:04:21.992Z,100509
2017-10-05T19:06:50.233Z,100531
2017-10-05T19:09:18.479Z,100524
2017-10-05T19:11:47.839Z,100522
2017-10-05T19:14:16.087Z,100521
2017-10-05T19:16:44.326Z,100520
2017-10-05T19:19:16.385Z,100524
2017-10-05T19:21:44.656Z,100520
2017-10-05T19:24:13.742Z,100519
2017-10-05T19:26:41.998Z,100520
2017-10-05T19:29:10.269Z,100522
2017-10-05T19:31:38.547Z,100537
2017-10-05T19:34:06.800Z,100535
2017-10-05T19:36:35.096Z,100537
2017-10-05T19:39:03.387Z,100533
2017-10-05T19:41:31.704Z,100531
2017-10-05T19:44:00.792Z,100531
2017-10-05T19:46:29.796Z,100539
2017-10-05T19:48:58.790Z,100569
2017-10-05T19:51:28.082Z,100553
2017-10-05T19:53:57.079Z,100547
2017-10-05T19:56:26.544Z,100548
2017-10-05T19:58:55.711Z,100540
2017-10-05T20:01:24.023Z,100550
2017-10-05T20:03:52.230Z,100560
2017-10-05T20:06:21.255Z,100560
2017-10-05T20:08:56.001Z,100565
2017-10-05T20:11:24.631Z,100554
2017-10-05T20:17:04.268Z,100554
2017-10-05T20:19:39.039Z,100550
2017-10-05T20:25:24.166Z,100567
2017-10-05T20:27:58.233Z,100569
2017-10-05T20:30:26.938Z,100548
2017-10-05T20:32:55.166Z,100573
2017-10-05T20:35:23.451Z,100553
2017-10-05T20:37:52.484Z,100565
2017-10-05T20:40:20.760Z,100564
2017-10-05T20:42:49.001Z,100553
2017-10-05T20:45:17.376Z,100561
2017-10-05T20:47:45.670Z,100552
2017-10-05T20:50:13.934Z,100562
2017-10-05T20:52:42.385Z,100564
2017-10-05T20:55:10.660Z,100561
2017-10-05T20:57:38.957Z,100564
2017-10-05T21:00:07.193Z,100564
2017-10-05T21:02:35.476Z,100566
2017-10-05T21:05:03.739Z,100569
2017-10-05T21:07:32.230Z,100567
2017-10-05T21:10:00.476Z,100566
2017-10-05T21:12:28.719Z,100571
2017-10-05T21:14:57.732Z,100576
2017-10-05T21:17:26.047Z,100579
2017-10-05T21:19:54.375Z,100575
2017-10-05T21:22:22.607Z,100558
2017-10-05T21:24:51.604Z,100568
2017-10-05T21:27:21.591Z,100572
2017-10-05T21:29:49.893Z,100552
2017-10-05T21:32:18.193Z,100560
2017-10-05T21:34:46.528Z,100558
2017-10-05T21:37:14.868Z,100553
2017-10-05T21:39:43.165Z,100556
2017-10-05T21:42:11.408Z,100559
2017-10-05T21:44:39.665Z,100569
2017-10-05T21:47:07.938Z,100569
2017-10-05T21:49:36.237Z,100569
2017-10-05T21:52:04.610Z,100570
2017-10-05T21:54:33.269Z,100588
2017-10-05T21:57:01.548Z,100602
2017-10-05T21:59:29.913Z,100609
2017-10-05T22:01:58.273Z,100592
2017-10-05T22:04:26.562Z,100579
2017-10-05T22:06:54.843Z,100593
2017-10-05T22:09:23.953Z,100571
2017-10-05T22:11:52.188Z,100582
2017-10-05T22:14:24.434Z,100571
2017-10-05T22:16:52.779Z,100574
2017-10-05T22:19:21.110Z,100581
2017-10-05T22:21:49.566Z,100579
2017-10-05T22:24:17.941Z,100580
2017-10-05T22:26:46.222Z,100573
2017-10-05T22:29:14.674Z,100559
2017-10-05T22:31:43.021Z,100554
2017-10-05T22:34:11.382Z,100559
2017-10-05T22:36:39.658Z,100567
2017-10-05T22:39:08.745Z,100572
2017-10-05T22:41:37.032Z,100616
2017-10-05T22:44:05.304Z,100613
2017-10-05T22:46:33.558Z,100614
2017-10-05T22:49:01.822Z,100595
2017-10-05T22:51:30.406Z,100610
2017-10-05T22:53:59.099Z,100586
2017-10-05T22:56:27.393Z,100568
2017-10-05T22:58:55.700Z,100575
2017-10-05T23:01:24.761Z,100586
2017-10-05T23:03:53.093Z,100597
2017-10-05T23:06:21.384Z,100589
2017-10-05T23:08:49.703Z,100590
2017-10-05T23:11:19.333Z,100581
2017-10-05T23:13:47.632Z,100590
2017-10-05T23:16:15.900Z,100603
2017-10-05T23:18:44.202Z,100600
2017-10-05T23:21:12.490Z,100600
2017-10-05T23:23:40.738Z,100593
2017-10-05T23:26:09.089Z,100586
2017-10-05T23:28:37.464Z,100588
2017-10-05T23:31:05.807Z,100591
2017-10-05T23:33:34.067Z,100574
2017-10-05T23:36:02.339Z,100578
2017-10-05T23:38:30.625Z,100582
2017-10-05T23:40:58.951Z,100582
2017-10-05T23:43:27.214Z,100577
2017-10-05T23:45:55.468Z,100586
2017-10-05T23:48:23.714Z,100594
2017-10-05T23:50:52.047Z,100596
2017-10-05T23:53:20.379Z,100596
2017-10-05T23:55:48.782Z,100580
2017-10-05T23:58:17.113Z,100580
